createdAt,value
2022-10-18T00:00:52.604Z,91.99
2022-10-18T00:03:20.316Z,93.15
2022-10-18T00:05:48.440Z,92.91
2022-10-18T00:08:17.751Z,93.84
2022-10-18T00:10:45.770Z,93.67
2022-10-18T00:13:13.829Z,93.00
2022-10-18T00:15:50.150Z,92.82
2022-10-18T00:18:18.357Z,92.34
2022-10-18T00:20:46.384Z,93.25
2022-10-18T00:23:14.117Z,92.63
2022-10-18T00:25:41.900Z,93.22
2022-10-18T00:28:09.645Z,93.03
2022-10-18T00:30:37.568Z,93.61
2022-10-18T00:33:06.660Z,92.93
2022-10-18T00:35:35.691Z,92.45
2022-10-18T00:38:03.385Z,93.88
2022-10-18T00:40:31.047Z,93.95
2022-10-18T00:42:58.813Z,93.73
2022-10-18T00:45:27.250Z,93.19
2022-10-18T00:47:59.462Z,92.82
2022-10-18T00:50:33.516Z,93.31
2022-10-18T00:53:04.429Z,92.58
2022-10-18T00:55:34.277Z,92.83
2022-10-18T00:58:02.696Z,92.55
2022-10-18T01:00:30.682Z,92.33
2022-10-18T01:03:00.142Z,92.28
2022-10-18T01:05:29.399Z,92.81
2022-10-18T01:08:15.888Z,93.71
2022-10-18T01:10:53.427Z,94.13
2022-10-18T01:13:33.195Z,93.36
2022-10-18T01:16:10.219Z,92.88
2022-10-18T01:18:43.341Z,92.92
2022-10-18T01:21:29.616Z,91.46
2022-10-18T01:24:27.436Z,92.07
2022-10-18T01:27:28.962Z,91.64
2022-10-18T01:30:19.215Z,91.57
2022-10-18T01:32:52.982Z,92.20
2022-10-18T01:35:24.438Z,91.59
2022-10-18T01:37:56.104Z,92.62
2022-10-18T01:40:25.650Z,92.38
2022-10-18T01:42:53.943Z,93.23
2022-10-18T01:45:24.341Z,92.61
2022-10-18T01:47:55.383Z,93.57
2022-10-18T01:50:30.824Z,95.63
2022-10-18T01:52:59.331Z,93.31
2022-10-18T01:55:35.110Z,93.84
2022-10-18T01:58:10.515Z,95.54
2022-10-18T02:00:42.815Z,93.77
2022-10-18T02:03:22.097Z,94.32
2022-10-18T02:05:55.754Z,93.99
2022-10-18T02:08:30.027Z,94.36
2022-10-18T02:11:02.191Z,94.13
2022-10-18T02:13:34.378Z,93.93
2022-10-18T02:16:07.329Z,94.18
2022-10-18T02:18:40.724Z,94.13
2022-10-18T02:21:11.852Z,93.97
2022-10-18T02:23:40.033Z,93.48
2022-10-18T02:26:08.143Z,94.92
2022-10-18T02:28:35.967Z,93.90
2022-10-18T02:31:11.746Z,93.75
2022-10-18T02:33:46.835Z,92.81
2022-10-18T02:36:19.387Z,93.10
2022-10-18T02:38:48.496Z,92.84
2022-10-18T02:41:24.562Z,92.53
2022-10-18T02:43:52.312Z,92.42
2022-10-18T02:46:20.592Z,93.20
2022-10-18T02:48:50.271Z,92.79
2022-10-18T02:51:18.104Z,92.71
2022-10-18T02:53:45.820Z,92.56
2022-10-18T02:56:13.555Z,92.34
2022-10-18T02:58:41.225Z,92.25
2022-10-18T03:01:09.006Z,92.23
2022-10-18T03:03:36.722Z,92.85
2022-10-18T03:06:06.086Z,91.79
2022-10-18T03:08:33.784Z,91.63
2022-10-18T03:11:01.492Z,91.72
2022-10-18T03:15:58.009Z,92.14
2022-10-18T03:18:25.827Z,91.16
2022-10-18T03:20:53.483Z,90.38
2022-10-18T03:23:22.624Z,90.81
2022-10-18T03:25:50.291Z,90.98
2022-10-18T03:28:17.936Z,92.08
2022-10-18T03:30:45.626Z,91.86
2022-10-18T03:33:13.357Z,91.02
2022-10-18T03:35:41.161Z,91.00
2022-10-18T03:38:08.879Z,90.63
2022-10-18T03:40:38.118Z,90.58
2022-10-18T03:43:05.738Z,90.40
2022-10-18T03:45:33.492Z,90.17
2022-10-18T03:48:01.216Z,90.34
2022-10-18T03:50:28.952Z,91.64
2022-10-18T03:52:56.644Z,92.60
2022-10-18T03:55:24.576Z,93.44
2022-10-18T03:57:53.623Z,92.75
2022-10-18T04:00:21.466Z,92.37
2022-10-18T04:02:52.021Z,92.06
2022-10-18T04:05:24.326Z,91.13
2022-10-18T04:07:52.022Z,92.11
2022-10-18T04:10:19.877Z,92.24
2022-10-18T04:12:47.675Z,91.24
2022-10-18T04:15:16.997Z,91.56
2022-10-18T04:17:44.694Z,94.19
2022-10-18T04:20:13.344Z,94.43
2022-10-18T04:22:41.134Z,92.73
2022-10-18T04:25:08.997Z,94.14
2022-10-18T04:27:37.235Z,93.81
2022-10-18T04:30:05.884Z,92.89
2022-10-18T04:32:35.456Z,92.83
2022-10-18T04:35:03.269Z,92.89
2022-10-18T04:37:31.325Z,92.45
2022-10-18T04:39:59.433Z,93.22
2022-10-18T04:42:27.357Z,91.96
2022-10-18T04:44:55.180Z,94.41
2022-10-18T04:47:22.920Z,93.61
2022-10-18T04:49:51.999Z,93.41
2022-10-18T04:52:20.201Z,92.95
2022-10-18T04:54:47.869Z,92.88
2022-10-18T04:57:15.528Z,93.06
2022-10-18T04:59:43.308Z,93.65
2022-10-18T05:02:11.105Z,94.28
2022-10-18T05:04:38.851Z,92.58
2022-10-18T05:07:07.961Z,91.99
2022-10-18T05:09:35.806Z,92.29
2022-10-18T05:12:03.590Z,92.89
2022-10-18T05:14:31.342Z,92.31
2022-10-18T05:16:59.014Z,92.58
2022-10-18T05:19:26.620Z,92.38
2022-10-18T05:21:54.330Z,93.16
2022-10-18T05:24:26.872Z,93.00
2022-10-18T05:26:56.046Z,94.46
2022-10-18T05:29:24.390Z,93.16
2022-10-18T05:31:52.244Z,93.07
2022-10-18T05:34:20.675Z,93.08
2022-10-18T05:36:49.473Z,95.36
2022-10-18T05:39:17.135Z,94.99
2022-10-18T05:41:46.217Z,94.77
2022-10-18T05:44:13.830Z,95.36
2022-10-18T05:46:41.643Z,94.50
2022-10-18T05:49:11.197Z,93.71
2022-10-18T05:51:38.977Z,93.03
2022-10-18T05:54:06.962Z,92.60
2022-10-18T05:56:34.738Z,93.22
2022-10-18T05:59:05.094Z,91.97
2022-10-18T06:01:32.866Z,94.36
2022-10-18T06:04:00.617Z,94.95
2022-10-18T06:06:28.391Z,94.09
2022-10-18T06:08:56.234Z,93.82
2022-10-18T06:11:24.203Z,93.14
2022-10-18T06:13:53.258Z,93.40
2022-10-18T06:16:27.275Z,92.96
2022-10-18T06:18:59.884Z,92.77
2022-10-18T06:21:27.850Z,94.59
2022-10-18T06:23:58.389Z,92.36
2022-10-18T06:26:27.225Z,91.85
2022-10-18T06:28:54.952Z,91.42
2022-10-18T06:31:24.074Z,92.37
2022-10-18T06:33:51.753Z,91.31
2022-10-18T06:36:22.054Z,91.11
2022-10-18T06:38:50.553Z,90.57
2022-10-18T06:41:19.352Z,91.30
2022-10-18T06:43:49.824Z,93.58
2022-10-18T06:46:17.742Z,94.39
2022-10-18T06:48:46.923Z,93.47
2022-10-18T06:51:15.195Z,93.11
2022-10-18T06:53:53.467Z,93.09
2022-10-18T06:56:31.116Z,91.75
2022-10-18T07:01:31.658Z,91.18
2022-10-18T07:04:00.812Z,91.37
2022-10-18T07:06:28.676Z,91.98
2022-10-18T07:08:57.062Z,92.03
2022-10-18T07:11:27.106Z,91.91
2022-10-18T07:14:00.703Z,91.62
2022-10-18T07:16:28.518Z,91.65
2022-10-18T07:18:56.464Z,92.01
2022-10-18T07:21:27.392Z,91.37
2022-10-18T07:23:55.249Z,91.25
2022-10-18T07:26:24.792Z,90.02
2022-10-18T07:28:55.860Z,91.15
2022-10-18T07:31:24.059Z,90.58
2022-10-18T07:33:52.019Z,90.85
2022-10-18T07:36:21.270Z,90.74
2022-10-18T07:38:51.877Z,90.33
2022-10-18T07:41:20.082Z,91.01
2022-10-18T07:43:51.888Z,89.91
2022-10-18T07:46:20.778Z,91.15
2022-10-18T07:48:48.588Z,92.80
2022-10-18T07:51:16.621Z,90.29
2022-10-18T07:53:44.739Z,89.36
2022-10-18T07:56:16.914Z,90.81
2022-10-18T07:58:44.884Z,90.92
2022-10-18T08:01:13.675Z,90.01
2022-10-18T08:03:42.938Z,89.32
2022-10-18T08:06:12.814Z,88.37
2022-10-18T08:08:41.765Z,87.69
2022-10-18T08:11:11.516Z,87.76
2022-10-18T08:13:40.682Z,88.42
2022-10-18T08:16:10.672Z,87.68
2022-10-18T08:18:39.271Z,87.61
2022-10-18T08:21:08.729Z,87.50
2022-10-18T08:23:37.208Z,88.95
2022-10-18T08:26:06.414Z,88.04
2022-10-18T08:28:36.678Z,87.75
2022-10-18T08:31:06.332Z,87.86
2022-10-18T08:33:35.748Z,90.34
2022-10-18T08:36:06.084Z,88.59
2022-10-18T08:38:34.450Z,88.21
2022-10-18T08:41:07.783Z,85.67
2022-10-18T08:43:42.795Z,87.57
2022-10-18T08:46:13.872Z,87.15
2022-10-18T08:48:45.263Z,86.14
2022-10-18T08:51:24.003Z,86.93
2022-10-18T08:54:00.204Z,86.55
2022-10-18T08:56:28.231Z,84.60
2022-10-18T08:58:56.354Z,85.24
2022-10-18T09:01:41.243Z,84.37
2022-10-18T09:04:23.937Z,83.70
2022-10-18T09:07:01.765Z,84.34
2022-10-18T09:09:37.996Z,84.93
2022-10-18T09:12:21.155Z,85.44
2022-10-18T09:15:04.966Z,85.39
2022-10-18T09:17:45.346Z,84.11
2022-10-18T09:20:22.989Z,81.99
2022-10-18T09:22:55.238Z,81.85
2022-10-18T09:25:24.984Z,84.19
2022-10-18T09:27:55.617Z,84.49
2022-10-18T09:30:45.293Z,85.63
2022-10-18T09:33:34.540Z,85.29
2022-10-18T09:36:04.233Z,84.46
2022-10-18T09:38:38.858Z,83.25
2022-10-18T09:41:09.775Z,84.52
2022-10-18T09:43:48.497Z,83.10
2022-10-18T09:46:18.046Z,83.03
2022-10-18T09:48:52.354Z,83.09
2022-10-18T09:51:23.125Z,82.51
2022-10-18T09:54:04.686Z,82.33
2022-10-18T09:56:41.072Z,81.33
2022-10-18T09:59:26.941Z,81.93
2022-10-18T10:01:54.886Z,81.07
2022-10-18T10:04:24.042Z,80.17
2022-10-18T10:06:53.448Z,80.78
2022-10-18T10:09:29.298Z,79.04
2022-10-18T10:11:57.715Z,79.98
2022-10-18T10:14:27.327Z,81.21
2022-10-18T10:16:56.935Z,80.23
2022-10-18T10:19:32.476Z,82.63
2022-10-18T10:22:05.140Z,81.68
2022-10-18T10:24:49.802Z,80.54
2022-10-18T10:27:24.798Z,80.63
2022-10-18T10:29:57.725Z,79.66
2022-10-18T10:32:29.612Z,78.98
2022-10-18T10:34:59.732Z,78.03
2022-10-18T10:37:34.373Z,79.29
2022-10-18T10:40:18.885Z,80.02
2022-10-18T10:43:04.277Z,80.06
2022-10-18T10:45:56.196Z,80.64
2022-10-18T10:48:26.282Z,79.51
2022-10-18T10:51:05.964Z,78.70
2022-10-18T10:53:44.949Z,79.00
2022-10-18T10:56:21.933Z,78.32
2022-10-18T10:58:50.068Z,78.11
2022-10-18T11:01:21.245Z,78.50
2022-10-18T11:03:51.218Z,78.60
2022-10-18T11:06:53.155Z,77.86
2022-10-18T11:09:31.030Z,79.58
2022-10-18T11:12:19.214Z,78.57
2022-10-18T11:14:52.196Z,79.89
2022-10-18T11:17:26.335Z,78.43
2022-10-18T11:20:03.519Z,77.37
2022-10-18T11:22:38.704Z,76.89
2022-10-18T11:25:07.062Z,76.79
2022-10-18T11:27:40.357Z,74.41
2022-10-18T11:30:25.860Z,76.19
2022-10-18T11:33:00.443Z,76.01
2022-10-18T11:35:38.769Z,74.81
2022-10-18T11:38:19.438Z,75.10
2022-10-18T11:40:57.457Z,76.41
2022-10-18T11:43:50.552Z,76.75
2022-10-18T11:46:32.151Z,76.97
2022-10-18T11:49:11.525Z,76.39
2022-10-18T11:52:09.246Z,76.60
2022-10-18T11:55:13.082Z,75.75
2022-10-18T11:57:47.501Z,74.99
2022-10-18T12:03:12.194Z,72.62
2022-10-18T12:05:42.351Z,73.38
2022-10-18T12:08:14.361Z,74.15
2022-10-18T12:11:03.840Z,72.32
2022-10-18T12:13:38.099Z,70.91
2022-10-18T12:16:08.070Z,71.38
2022-10-18T12:18:43.347Z,70.01
2022-10-18T12:21:13.210Z,69.73
2022-10-18T12:23:50.566Z,69.01
2022-10-18T12:26:20.572Z,69.45
2022-10-18T12:28:55.889Z,69.03
2022-10-18T12:31:27.483Z,69.15
2022-10-18T12:33:59.459Z,68.82
2022-10-18T12:36:45.258Z,68.76
2022-10-18T12:39:29.062Z,68.39
2022-10-18T12:42:19.820Z,67.84
2022-10-18T12:44:48.745Z,68.20
2022-10-18T12:47:24.101Z,68.83
2022-10-18T12:49:58.959Z,68.44
2022-10-18T12:52:29.172Z,69.34
2022-10-18T12:55:07.360Z,70.01
2022-10-18T12:58:21.852Z,70.46
2022-10-18T13:00:55.076Z,68.62
2022-10-18T13:03:54.520Z,68.74
2022-10-18T13:06:24.017Z,68.76
2022-10-18T13:09:20.682Z,68.75
2022-10-18T13:11:48.852Z,68.31
2022-10-18T13:15:05.684Z,70.18
2022-10-18T13:17:50.501Z,68.72
2022-10-18T13:20:27.318Z,70.21
2022-10-18T13:23:08.351Z,70.47
2022-10-18T13:25:50.084Z,69.73
2022-10-18T13:28:30.718Z,69.60
2022-10-18T13:31:10.045Z,70.05
2022-10-18T13:33:40.056Z,70.02
2022-10-18T13:36:23.228Z,68.88
2022-10-18T13:39:03.276Z,70.55
2022-10-18T13:41:35.330Z,71.29
2022-10-18T13:44:25.302Z,70.82
2022-10-18T13:47:38.205Z,70.54
2022-10-18T13:50:36.432Z,71.07
2022-10-18T13:53:28.850Z,71.48
2022-10-18T13:56:11.501Z,70.74
2022-10-18T13:59:05.888Z,71.10
2022-10-18T14:01:50.692Z,71.43
2022-10-18T14:04:44.111Z,70.97
2022-10-18T14:07:12.983Z,69.39
2022-10-18T14:09:48.884Z,69.59
2022-10-18T14:12:27.606Z,69.80
2022-10-18T14:15:00.595Z,69.31
2022-10-18T14:17:35.178Z,69.79
2022-10-18T14:20:17.771Z,69.58
2022-10-18T14:22:50.719Z,70.56
2022-10-18T14:25:26.822Z,70.04
2022-10-18T14:28:08.937Z,70.28
2022-10-18T14:30:52.695Z,69.79
2022-10-18T14:33:33.924Z,69.63
2022-10-18T14:36:10.423Z,68.74
2022-10-18T14:38:48.867Z,68.68
2022-10-18T14:41:19.208Z,69.22
2022-10-18T14:43:48.220Z,68.83
2022-10-18T14:46:25.998Z,68.23
2022-10-18T14:48:56.388Z,67.00
2022-10-18T14:51:26.179Z,67.66
2022-10-18T14:53:54.612Z,68.75
2022-10-18T14:56:27.326Z,68.25
2022-10-18T14:58:56.991Z,67.80
2022-10-18T15:01:29.283Z,68.54
2022-10-18T15:03:58.895Z,69.34
2022-10-18T15:06:28.483Z,69.04
2022-10-18T15:08:59.306Z,70.67
2022-10-18T15:11:28.596Z,70.26
2022-10-18T15:13:59.147Z,71.57
2022-10-18T15:16:30.065Z,71.66
2022-10-18T15:19:06.214Z,71.26
2022-10-18T15:21:36.444Z,71.85
2022-10-18T15:24:21.024Z,72.44
2022-10-18T15:26:50.828Z,72.77
2022-10-18T15:29:20.676Z,71.69
2022-10-18T15:31:49.348Z,73.00
2022-10-18T15:34:20.603Z,72.64
2022-10-18T15:36:51.131Z,72.20
2022-10-18T15:39:21.441Z,71.83
2022-10-18T15:41:50.785Z,71.54
2022-10-18T15:44:27.837Z,72.01
2022-10-18T15:46:58.159Z,73.42
2022-10-18T15:49:58.167Z,73.76
2022-10-18T15:52:39.621Z,73.75
2022-10-18T15:55:46.671Z,73.82
2022-10-18T15:58:22.232Z,73.19
2022-10-18T16:00:51.614Z,72.75
2022-10-18T16:03:22.053Z,73.31
2022-10-18T16:05:49.919Z,72.48
2022-10-18T16:08:25.221Z,71.93
2022-10-18T16:10:53.084Z,72.91
2022-10-18T16:13:20.944Z,72.78
2022-10-18T16:15:48.825Z,72.28
2022-10-18T16:18:19.129Z,72.49
2022-10-18T16:20:47.534Z,72.80
2022-10-18T16:23:18.853Z,72.94
2022-10-18T16:25:48.874Z,72.23
2022-10-18T16:28:18.995Z,72.12
2022-10-18T16:30:56.082Z,71.95
2022-10-18T16:33:24.634Z,71.80
2022-10-18T16:35:53.070Z,72.03
2022-10-18T16:38:31.105Z,72.88
2022-10-18T16:41:04.502Z,73.39
2022-10-18T16:43:32.459Z,73.28
2022-10-18T16:46:00.460Z,73.47
2022-10-18T16:48:28.947Z,73.58
2022-10-18T16:50:57.962Z,73.43
2022-10-18T16:53:26.295Z,74.20
2022-10-18T16:55:56.264Z,74.61
2022-10-18T16:58:26.103Z,73.81
2022-10-18T17:00:54.322Z,73.49
2022-10-18T17:03:22.088Z,73.82
2022-10-18T17:05:49.840Z,73.79
2022-10-18T17:08:20.336Z,74.28
2022-10-18T17:10:49.650Z,74.20
2022-10-18T17:13:17.826Z,75.13
2022-10-18T17:15:47.183Z,74.60
2022-10-18T17:18:18.448Z,74.35
2022-10-18T17:20:46.922Z,74.18
2022-10-18T17:23:14.807Z,73.62
2022-10-18T17:25:57.538Z,74.11
2022-10-18T17:28:32.757Z,73.83
2022-10-18T17:31:01.943Z,73.47
2022-10-18T17:33:29.660Z,73.56
2022-10-18T17:35:57.362Z,73.48
2022-10-18T17:38:25.215Z,73.79
2022-10-18T17:40:53.369Z,75.18
2022-10-18T17:43:21.302Z,74.65
2022-10-18T17:45:49.233Z,73.63
2022-10-18T17:48:18.744Z,74.61
2022-10-18T17:50:46.625Z,74.69
2022-10-18T17:53:16.616Z,75.72
2022-10-18T17:55:44.377Z,75.36
2022-10-18T17:58:12.074Z,74.46
2022-10-18T18:00:40.109Z,75.46
2022-10-18T18:03:07.865Z,75.17
2022-10-18T18:05:36.977Z,74.44
2022-10-18T18:08:04.760Z,74.31
2022-10-18T18:10:33.651Z,74.09
2022-10-18T18:13:01.634Z,74.26
2022-10-18T18:15:29.373Z,74.47
2022-10-18T18:17:58.094Z,74.09
2022-10-18T18:20:26.164Z,73.84
2022-10-18T18:22:55.518Z,75.10
2022-10-18T18:25:23.298Z,74.60
2022-10-18T18:27:51.011Z,74.69
2022-10-18T18:30:19.000Z,73.57
2022-10-18T18:32:46.710Z,73.99
2022-10-18T18:35:14.518Z,74.18
2022-10-18T18:37:42.346Z,75.09
2022-10-18T18:40:12.020Z,75.26
2022-10-18T18:42:39.751Z,74.98
2022-10-18T18:45:08.214Z,73.79
2022-10-18T18:47:36.250Z,73.58
2022-10-18T18:50:04.042Z,73.56
2022-10-18T18:52:32.021Z,72.75
2022-10-18T18:55:00.036Z,72.90
2022-10-18T18:57:29.313Z,72.56
2022-10-18T18:59:57.086Z,72.29
2022-10-18T19:02:24.824Z,72.44
2022-10-18T19:04:52.606Z,72.94
2022-10-18T19:07:20.424Z,72.24
2022-10-18T19:09:50.532Z,72.75
2022-10-18T19:12:20.608Z,72.35
2022-10-18T19:14:50.625Z,71.86
2022-10-18T19:17:18.508Z,72.19
2022-10-18T19:19:46.725Z,71.69
2022-10-18T19:22:14.621Z,72.27
2022-10-18T19:24:42.843Z,72.66
2022-10-18T19:27:12.531Z,73.21
2022-10-18T19:29:42.109Z,73.91
2022-10-18T19:32:13.463Z,71.97
2022-10-18T19:34:41.670Z,72.03
2022-10-18T19:37:10.680Z,71.94
2022-10-18T19:39:39.264Z,72.04
2022-10-18T19:42:09.844Z,72.09
2022-10-18T19:44:38.621Z,71.66
2022-10-18T19:47:08.200Z,71.87
2022-10-18T19:49:37.617Z,71.94
2022-10-18T19:52:05.618Z,71.40
2022-10-18T19:54:33.921Z,72.08
2022-10-18T19:57:02.172Z,72.62
2022-10-18T19:59:30.343Z,72.53
2022-10-18T20:02:00.491Z,73.39
2022-10-18T20:04:34.228Z,74.05
2022-10-18T20:07:03.949Z,74.54
2022-10-18T20:09:32.448Z,74.88
2022-10-18T20:12:00.184Z,74.31
2022-10-18T20:14:27.957Z,73.10
2022-10-18T20:16:56.327Z,73.07
2022-10-18T20:19:24.250Z,73.38
2022-10-18T20:21:52.393Z,73.00
2022-10-18T20:24:21.540Z,73.10
2022-10-18T20:26:49.309Z,73.17
2022-10-18T20:29:17.198Z,73.71
2022-10-18T20:31:45.073Z,74.22
2022-10-18T20:34:13.541Z,73.82
2022-10-18T20:36:42.914Z,74.08
2022-10-18T20:39:10.936Z,74.40
2022-10-18T20:41:41.707Z,75.20
2022-10-18T20:44:13.923Z,76.05
2022-10-18T20:46:42.082Z,76.53
2022-10-18T20:49:13.558Z,76.47
2022-10-18T20:51:41.903Z,77.83
2022-10-18T20:54:10.500Z,78.91
2022-10-18T20:56:40.680Z,78.80
2022-10-18T20:59:10.232Z,78.81
2022-10-18T21:01:39.657Z,77.95
2022-10-18T21:04:09.651Z,79.04
2022-10-18T21:06:40.190Z,79.41
2022-10-18T21:09:09.556Z,78.53
2022-10-18T21:11:38.949Z,77.57
2022-10-18T21:14:08.789Z,77.66
2022-10-18T21:16:37.047Z,77.57
2022-10-18T21:19:05.294Z,77.97
2022-10-18T21:21:33.685Z,78.97
2022-10-18T21:24:04.059Z,78.00
2022-10-18T21:26:35.274Z,77.82
2022-10-18T21:29:03.473Z,77.46
2022-10-18T21:31:34.722Z,77.98
2022-10-18T21:34:04.153Z,78.17
2022-10-18T21:36:33.817Z,78.63
2022-10-18T21:39:02.799Z,79.96
2022-10-18T21:41:32.104Z,80.17
2022-10-18T21:43:59.869Z,78.19
2022-10-18T21:46:27.947Z,77.93
2022-10-18T21:48:58.401Z,78.08
2022-10-18T21:51:27.970Z,77.54
2022-10-18T21:53:57.938Z,77.13
2022-10-18T21:56:27.969Z,77.27
2022-10-18T21:58:56.532Z,77.89
2022-10-18T22:01:26.554Z,78.96
2022-10-18T22:03:56.204Z,79.50
2022-10-18T22:06:26.360Z,78.33
2022-10-18T22:08:56.232Z,78.82
2022-10-18T22:11:26.763Z,77.57
2022-10-18T22:13:55.296Z,77.76
2022-10-18T22:16:23.143Z,78.59
2022-10-18T22:18:52.041Z,79.54
2022-10-18T22:21:21.490Z,80.51
2022-10-18T22:23:52.601Z,81.03
2022-10-18T22:26:22.728Z,81.57
2022-10-18T22:28:56.114Z,81.88
2022-10-18T22:31:26.484Z,82.30
2022-10-18T22:33:55.503Z,83.57
2022-10-18T22:36:23.294Z,82.08
2022-10-18T22:38:52.676Z,81.79
2022-10-18T22:41:20.613Z,81.40
2022-10-18T22:43:48.393Z,81.05
2022-10-18T22:46:16.663Z,81.62
2022-10-18T22:48:45.366Z,81.32
2022-10-18T22:51:13.808Z,80.58
2022-10-18T22:53:42.286Z,80.28
2022-10-18T22:56:13.584Z,78.95
2022-10-18T22:58:41.267Z,80.44
2022-10-18T23:01:11.153Z,80.65
2022-10-18T23:03:39.811Z,80.83
2022-10-18T23:06:20.561Z,80.95
2022-10-18T23:08:48.731Z,79.56
2022-10-18T23:11:18.427Z,80.25
2022-10-18T23:13:46.967Z,78.97
2022-10-18T23:16:15.298Z,78.22
2022-10-18T23:18:43.075Z,79.00
2022-10-18T23:21:13.141Z,79.97
2022-10-18T23:23:42.905Z,80.32
2022-10-18T23:26:12.515Z,80.87
2022-10-18T23:28:43.228Z,80.04
2022-10-18T23:31:13.582Z,80.36
2022-10-18T23:33:41.767Z,79.69
2022-10-18T23:36:10.561Z,79.89
2022-10-18T23:38:40.043Z,80.38
2022-10-18T23:41:09.304Z,79.89
2022-10-18T23:43:37.699Z,79.71
2022-10-18T23:46:07.066Z,79.39
2022-10-18T23:48:35.128Z,81.15
2022-10-18T23:51:03.251Z,79.37
2022-10-18T23:53:31.330Z,79.46
2022-10-18T23:56:01.233Z,79.90
2022-10-18T23:58:31.435Z,81.25
